Pena Blanca, New Mexico
Current Conditions -  °F | °C
As of 2:53 AM on Sunday 25 Jan 2015 (Local Time) from KSAF Reporting Station
Clear Clear  
Wind Chill: 16°   Ceiling: Unl
Heat Index: 26°   Visibility: 10mi
Dew Point: 17°   Wind: 12mph
Humidity: 69%   Direction: 330°NNW
Pressure: 30.23"   Gusts: NA
Location:  35.57°N, 106.34°W
Report Text: KSAF 250953Z AUTO 33010KT 10SM CLR M03/M08 A3023 RMK AO2 SLP228 T10331083
Loading
Personal Weather Stations






























Interactive Weather Map New forecast layout! Learn more

10-Day Weather Forecast

Advertisements
Track Severe Weather on mobile